HEEM weather

Giza Embaba Airport
Cairo, Cairo Governorate, Egypt

Public forecast

Using degrees Celsius for public forecast. Weather courtesy of forecast.io.

Closest aviation weather report (METAR) to Giza Embaba Airport

Closest report is Cairo International Airport, 11.5 nm (21.3 km) ENE. Retrieved 2019/11/15 17:30 UTC (0 seconds ago):

HECA 151730Z 36007KT 9999 SCT025 23/13 Q1018 NOSIG

Closest aviation forecast (TAF) to Giza Embaba Airport

Closest forecast is Cairo International Airport, 11.5 nm (21.3 km) ENE. Retrieved 2019/11/15 12:18 UTC (5 hours ago):

TAF COR HECA 151100Z 1512/1618 34012KT 9999 SCT025